Time;durP1;ratioP1;P1;durP2;ratioP2;P2;SDS_P1;SDS_P2;PMS_P1;PMS_P2;Temp;Humidity;BMP_temperature;BMP_pressure;BME280_temperature;BME280_humidity;BME280_pressure;Samples;Min_cycle;Max_cycle;Signal;HPM_P1;HPM_P2
2021/12/15 00:02:23;;;;;;;;;;;;;;;21.35;51.55;102531.81;7282896;19;152594;-52
2021/12/15 00:04:52;;;;;;;;;;;;;;;21.33;51.49;102529.25;7284497;19;151987;-50
2021/12/15 00:07:20;;;;;;;;;;;;;;;21.34;51.81;102525.34;7283726;19;153494;-50
2021/12/15 00:09:47;;;;;;;;;;;;;;;21.33;51.63;102539.66;7281534;19;152330;-51
2021/12/15 00:12:14;;;;;;;;;;;;;;;21.32;51.34;102532.34;7280624;19;152643;-51
2021/12/15 00:14:42;;;;;;;;;;;;;;;21.29;51.43;102531.78;7287922;19;153260;-50
2021/12/15 00:17:12;;;;;;;;;;;;;;;21.26;52.04;102537.94;7281870;19;151911;-50
2021/12/15 00:19:39;;;;;;;;;;;;;;;21.25;52.07;102538.22;7282811;19;153180;-51
2021/12/15 00:22:06;;;;;;;;;;;;;;;21.26;51.78;102532.31;7281105;19;154101;-51
2021/12/15 00:24:34;;;;;;;;;;;;;;;21.22;51.68;102544.38;7282156;19;152044;-50
2021/12/15 00:27:01;;;;;;;;;;;;;;;21.21;51.93;102532.28;7280697;19;153233;-50
2021/12/15 00:29:28;;;;;;;;;;;;;;;21.20;51.42;102533.44;7278664;19;152900;-51
2021/12/15 00:31:56;;;;;;;;;;;;;;;21.20;51.92;102538.22;7280554;19;152551;-50
2021/12/15 00:34:23;;;;;;;;;;;;;;;21.17;51.61;102538.75;7280456;19;152535;-50
2021/12/15 00:36:50;;;;;;;;;;;;;;;21.12;51.94;102533.91;7288905;19;153276;-50
2021/12/15 00:39:19;;;;;;;;;;;;;;;21.14;52.12;102542.09;7282611;19;153120;-50
2021/12/15 00:41:46;;;;;;;;;;;;;;;21.09;52.26;102540.09;7282230;19;153239;-50
2021/12/15 00:44:13;;;;;;;;;;;;;;;21.07;52.15;102545.16;7282877;19;152185;-51
2021/12/15 00:46:41;;;;;;;;;;;;;;;21.05;52.16;102541.75;7284094;19;152607;-50
2021/12/15 00:49:08;;;;;;;;;;;;;;;21.04;52.13;102547.63;7282245;19;153349;-50
2021/12/15 00:51:36;;;;;;;;;;;;;;;20.99;52.13;102540.03;7280755;19;151916;-50
2021/12/15 00:54:04;;;;;;;;;;;;;;;21.00;52.54;102547.34;7278085;19;153127;-51
2021/12/15 00:56:31;;;;;;;;;;;;;;;20.95;52.64;102541.69;7286491;19;152583;-50
2021/12/15 00:58:58;;;;;;;;;;;;;;;20.92;52.63;102538.59;7282917;19;153034;-51
2021/12/15 01:01:26;;;;;;;;;;;;;;;20.88;52.38;102541.09;7281646;19;154090;-50
2021/12/15 01:03:54;;;;;;;;;;;;;;;20.88;52.12;102537.44;7277495;19;152005;-50
2021/12/15 01:06:21;;;;;;;;;;;;;;;20.85;52.66;102538.81;7278987;19;153282;-50
2021/12/15 01:08:54;;;;;;;;;;;;;;;20.81;52.85;102549.75;7278513;19;153638;-50
2021/12/15 01:21:26;;;;;;;;;;;;;;;20.74;53.15;102537.94;7280457;19;152522;-50
2021/12/15 01:23:53;;;;;;;;;;;;;;;20.73;52.85;102544.66;7278623;19;152213;-50
2021/12/15 01:26:20;;;;;;;;;;;;;;;20.71;52.94;102546.91;7279473;19;152087;-56
2021/12/15 01:28:47;;;;;;;;;;;;;;;20.72;52.77;102544.91;7280239;19;153733;-50
2021/12/15 01:31:15;;;;;;;;;;;;;;;20.69;52.96;102549.13;7281581;19;151889;-50
2021/12/15 01:33:42;;;;;;;;;;;;;;;20.69;53.05;102545.47;7279991;19;152709;-50
2021/12/15 01:36:09;;;;;;;;;;;;;;;20.66;52.85;102546.03;7279726;19;153249;-50
2021/12/15 01:38:38;;;;;;;;;;;;;;;20.66;52.83;102548.84;7279124;19;151604;-50
2021/12/15 01:41:06;;;;;;;;;;;;;;;20.66;53.27;102548.84;7289294;19;152960;-51
2021/12/15 01:48:35;;;;;;;;;;;;;;;20.57;53.69;102554.09;7284588;19;153560;-50
2021/12/15 01:51:03;;;;;;;;;;;;;;;20.56;53.19;102557.19;7285969;19;152468;-50
2021/12/15 01:53:30;;;;;;;;;;;;;;;20.54;53.61;102557.44;7287156;19;152576;-50
2021/12/15 01:55:57;;;;;;;;;;;;;;;20.54;53.79;102556.59;7284377;19;153653;-51
2021/12/15 01:58:24;;;;;;;;;;;;;;;20.54;53.54;102559.41;7286355;19;151871;-50
2021/12/15 02:00:55;;;;;;;;;;;;;;;20.56;53.11;102563.63;7286340;19;153368;-51
2021/12/15 02:03:23;;;;;;;;;;;;;;;20.53;53.52;102564.19;7292773;19;154975;-50
2021/12/15 02:05:51;;;;;;;;;;;;;;;20.51;53.37;102566.41;7284626;19;151953;-51
2021/12/15 02:08:17;;;;;;;;;;;;;;;20.51;53.79;102573.97;7282444;19;153258;-50
2021/12/15 02:10:45;;;;;;;;;;;;;;;20.49;53.52;102573.41;7286456;19;152279;-50
2021/12/15 02:13:13;;;;;;;;;;;;;;;20.47;53.50;102576.50;7282614;19;152466;-50
2021/12/15 02:15:42;;;;;;;;;;;;;;;20.46;53.74;102582.34;7286661;19;153956;-52
2021/12/15 02:18:12;;;;;;;;;;;;;;;20.45;53.69;102589.09;7284372;19;152306;-50
2021/12/15 02:20:41;;;;;;;;;;;;;;;20.44;53.68;102585.47;7288017;19;153172;-51
2021/12/15 02:23:09;;;;;;;;;;;;;;;20.42;53.83;102584.88;7281885;19;153862;-50
2021/12/15 02:25:37;;;;;;;;;;;;;;;20.41;53.49;102595.25;7291548;19;152320;-50
2021/12/15 02:28:07;;;;;;;;;;;;;;;20.40;53.96;102585.13;7285631;19;154401;-50
2021/12/15 02:38:04;;;;;;;;;;;;;;;20.37;54.11;102590.44;7284340;19;152496;-50
2021/12/15 02:40:32;;;;;;;;;;;;;;;20.37;53.74;102585.66;7285035;19;153429;-51
2021/12/15 02:42:59;;;;;;;;;;;;;;;20.35;53.93;102596.31;7283582;19;153886;-50
2021/12/15 02:45:26;;;;;;;;;;;;;;;20.32;53.83;102594.03;7285453;19;152100;-50
2021/12/15 02:47:53;;;;;;;;;;;;;;;20.35;53.79;102601.09;7290804;19;152990;-51
2021/12/15 02:50:22;;;;;;;;;;;;;;;20.34;54.08;102603.06;7284123;19;152295;-50
2021/12/15 02:52:50;;;;;;;;;;;;;;;20.33;54.10;102595.75;7283173;19;152166;-50
2021/12/15 02:55:17;;;;;;;;;;;;;;;20.33;53.90;102592.94;7281121;19;153764;-51
2021/12/15 02:57:45;;;;;;;;;;;;;;;20.32;54.21;102607.22;7285177;19;151975;-50
2021/12/15 03:05:21;;;;;;;;;;;;;;;20.27;53.98;102604.34;7286526;19;151941;-52
2021/12/15 03:08:02;;;;;;;;;;;;;;;20.27;53.98;102602.38;7289393;19;151700;-52
2021/12/15 03:18:00;;;;;;;;;;;;;;;20.22;54.18;102595.88;7285562;19;152271;-51
2021/12/15 03:20:29;;;;;;;;;;;;;;;20.19;54.23;102590.78;7283005;19;152054;-50
2021/12/15 03:22:56;;;;;;;;;;;;;;;20.15;54.72;102598.06;7281122;19;152966;-51
2021/12/15 03:25:25;;;;;;;;;;;;;;;20.15;54.26;102598.06;7283497;19;151684;-50
2021/12/15 03:35:33;;;;;;;;;;;;;;;20.10;54.77;102592.38;7279799;19;153327;-50
2021/12/15 03:38:00;;;;;;;;;;;;;;;20.07;54.91;102596.59;7284946;19;151699;-51
2021/12/15 03:40:36;;;;;;;;;;;;;;;20.12;54.64;102592.97;7282699;19;152662;-50
2021/12/15 03:43:05;;;;;;;;;;;;;;;20.08;54.68;102592.66;7283677;19;153935;-51
2021/12/15 03:45:35;;;;;;;;;;;;;;;20.06;54.63;102585.63;7283265;19;151720;-50
2021/12/15 03:48:04;;;;;;;;;;;;;;;20.06;55.08;102586.47;7283864;19;153099;-50
2021/12/15 03:50:32;;;;;;;;;;;;;;;20.06;54.77;102594.03;7281915;19;153410;-50
2021/12/15 03:52:59;;;;;;;;;;;;;;;20.06;55.07;102589.28;7291320;19;152088;-50
2021/12/15 03:55:28;;;;;;;;;;;;;;;20.05;54.86;102589.53;7279792;19;153254;-50
2021/12/15 03:57:55;;;;;;;;;;;;;;;20.03;54.85;102587.00;7282182;19;152018;-50
2021/12/15 04:00:23;;;;;;;;;;;;;;;19.99;54.84;102599.84;7280977;19;152813;-51
2021/12/15 04:02:50;;;;;;;;;;;;;;;19.98;55.00;102592.56;7281034;19;153530;-52
2021/12/15 04:05:19;;;;;;;;;;;;;;;20.00;54.90;102598.75;7278089;19;151851;-51
2021/12/15 04:07:46;;;;;;;;;;;;;;;19.99;55.10;102589.47;7283018;19;152628;-51
2021/12/15 04:10:15;;;;;;;;;;;;;;;19.97;55.17;102600.13;7280990;19;153443;-51
2021/12/15 04:12:42;;;;;;;;;;;;;;;19.97;55.48;102602.09;7281786;19;151813;-50
2021/12/15 04:17:40;;;;;;;;;;;;;;;19.94;55.21;102597.84;7281094;19;151889;-50
2021/12/15 04:20:09;;;;;;;;;;;;;;;19.93;55.24;102600.91;7284647;19;151980;-51
2021/12/15 04:22:36;;;;;;;;;;;;;;;19.92;55.27;102602.03;7280894;19;153927;-51
2021/12/15 04:25:05;;;;;;;;;;;;;;;19.89;55.55;102603.41;7282704;19;152129;-51
2021/12/15 04:27:32;;;;;;;;;;;;;;;19.88;55.25;102600.88;7281242;19;152911;-50
2021/12/15 04:29:59;;;;;;;;;;;;;;;19.88;55.67;102601.72;7282794;19;153375;-50
2021/12/15 04:32:27;;;;;;;;;;;;;;;19.86;55.38;102603.91;7284154;19;152185;-50
2021/12/15 04:34:54;;;;;;;;;;;;;;;19.86;55.41;102605.88;7281948;19;152626;-51
2021/12/15 04:37:21;;;;;;;;;;;;;;;19.89;55.83;102608.19;7288445;19;154046;-51
2021/12/15 04:39:48;;;;;;;;;;;;;;;19.89;55.36;102608.19;7279468;19;152607;-50
2021/12/15 04:42:19;;;;;;;;;;;;;;;19.86;55.51;102615.13;7281738;19;153512;-51
2021/12/15 04:44:46;;;;;;;;;;;;;;;19.84;55.68;102614.56;7279958;19;151945;-56
2021/12/15 04:47:14;;;;;;;;;;;;;;;19.84;55.40;102608.97;7282754;19;152764;-53
2021/12/15 04:49:44;;;;;;;;;;;;;;;19.84;55.73;102616.53;7282089;19;152692;-50
2021/12/15 04:52:12;;;;;;;;;;;;;;;19.84;55.39;102617.38;7282219;19;152106;-51
2021/12/15 04:54:40;;;;;;;;;;;;;;;19.82;55.75;102613.13;7279164;19;153133;-49
2021/12/15 04:57:07;;;;;;;;;;;;;;;19.82;55.35;102618.72;7278916;19;153413;-50
2021/12/15 04:59:34;;;;;;;;;;;;;;;19.81;55.52;102617.03;7291137;19;152051;-50
2021/12/15 05:02:02;;;;;;;;;;;;;;;19.84;55.21;102623.00;7283568;19;153343;-50
2021/12/15 05:04:30;;;;;;;;;;;;;;;19.84;55.80;102619.34;7278696;19;152373;-50
2021/12/15 05:06:57;;;;;;;;;;;;;;;19.83;55.39;102631.66;7280105;19;152199;-50
2021/12/15 05:09:24;;;;;;;;;;;;;;;19.84;55.47;102627.75;7279840;19;151975;-50
2021/12/15 05:11:53;;;;;;;;;;;;;;;19.82;55.60;102625.19;7282369;19;151765;-50
2021/12/15 05:14:22;;;;;;;;;;;;;;;19.86;55.35;102625.50;7278915;19;152233;-51
2021/12/15 05:16:49;;;;;;;;;;;;;;;19.77;55.13;102629.88;7279380;19;152786;-51
2021/12/15 05:19:16;;;;;;;;;;;;;;;19.69;54.30;102642.44;7283712;19;152385;-51
2021/12/15 05:21:43;;;;;;;;;;;;;;;19.74;54.26;102634.09;7278953;19;152663;-51
2021/12/15 05:24:22;;;;;;;;;;;;;;;19.75;54.10;102630.19;7280384;19;152299;-51
2021/12/15 05:26:50;;;;;;;;;;;;;;;19.66;54.14;102637.34;7283122;19;152602;-51
2021/12/15 05:29:20;;;;;;;;;;;;;;;19.61;54.33;102639.25;7277887;19;154107;-50
2021/12/15 05:31:48;;;;;;;;;;;;;;;19.70;54.07;102644.13;7280021;19;152152;-51
2021/12/15 05:34:15;;;;;;;;;;;;;;;19.52;52.41;102639.69;7283166;19;153519;-51
2021/12/15 05:36:43;;;;;;;;;;;;;;;19.53;52.80;102643.34;7282099;19;154261;-52
2021/12/15 05:39:09;;;;;;;;;;;;;;;19.48;53.75;102635.72;7282827;19;151945;-52
2021/12/15 05:41:36;;;;;;;;;;;;;;;19.48;53.50;102641.34;7289701;19;151797;-50
2021/12/15 05:44:04;;;;;;;;;;;;;;;19.47;54.09;102642.44;7282400;19;152487;-49
2021/12/15 05:46:32;;;;;;;;;;;;;;;19.47;53.99;102639.63;7280853;19;152415;-50
2021/12/15 05:48:59;;;;;;;;;;;;;;;19.48;54.03;102637.69;7277072;19;153183;-50
2021/12/15 05:51:26;;;;;;;;;;;;;;;19.47;54.33;102642.44;7281421;19;152677;-50
2021/12/15 05:53:53;;;;;;;;;;;;;;;19.51;54.22;102638.00;7278954;19;153101;-50
2021/12/15 05:56:20;;;;;;;;;;;;;;;19.51;54.13;102635.19;7274741;19;152597;-50
2021/12/15 05:58:47;;;;;;;;;;;;;;;19.49;54.37;102639.34;7283131;19;151971;-50
2021/12/15 06:01:15;;;;;;;;;;;;;;;19.48;54.18;102641.34;7280670;19;153727;-50
2021/12/15 06:03:42;;;;;;;;;;;;;;;19.56;54.09;102642.81;7282674;19;153285;-50
2021/12/15 06:06:09;;;;;;;;;;;;;;;19.67;54.57;102655.03;7282370;19;154159;-50
2021/12/15 06:08:36;;;;;;;;;;;;;;;19.70;54.76;102655.34;7280686;19;152218;-50
2021/12/15 06:11:03;;;;;;;;;;;;;;;19.74;54.95;102653.72;7278640;19;152282;-51
2021/12/15 06:13:31;;;;;;;;;;;;;;;19.79;54.83;102653.78;7278145;19;153165;-50
2021/12/15 06:15:59;;;;;;;;;;;;;;;19.85;54.84;102647.09;7275792;19;153257;-52
2021/12/15 06:18:27;;;;;;;;;;;;;;;19.89;54.58;102648.31;7281928;19;151606;-55
2021/12/15 06:20:55;;;;;;;;;;;;;;;19.97;54.81;102656.25;7282144;19;151920;-50
2021/12/15 06:23:22;;;;;;;;;;;;;;;20.07;54.88;102660.28;7274195;19;153786;-50
2021/12/15 06:25:52;;;;;;;;;;;;;;;20.14;54.94;102660.91;7285801;19;152074;-51
2021/12/15 06:28:20;;;;;;;;;;;;;;;20.22;55.19;102658.47;7279371;19;154229;-50
2021/12/15 06:30:47;;;;;;;;;;;;;;;20.29;54.88;102659.13;7286776;19;151707;-50
2021/12/15 06:33:15;;;;;;;;;;;;;;;20.35;54.68;102666.47;7283481;19;153176;-50
2021/12/15 06:35:52;;;;;;;;;;;;;;;20.40;54.71;102662.88;7280794;19;152704;-51
2021/12/15 06:38:21;;;;;;;;;;;;;;;20.46;54.54;102664.63;7285617;19;151932;-51
2021/12/15 06:40:49;;;;;;;;;;;;;;;20.51;54.26;102673.13;7284814;19;153465;-50
2021/12/15 06:43:16;;;;;;;;;;;;;;;20.55;54.20;102673.41;7285002;19;153304;-51
2021/12/15 06:58:23;;;;;;;;;;;;;;;20.73;53.35;102682.28;7285348;19;152469;-50
2021/12/15 07:00:53;;;;;;;;;;;;;;;20.77;53.39;102682.59;7286829;19;152538;-50
2021/12/15 07:03:22;;;;;;;;;;;;;;;20.79;53.77;102680.38;7282111;19;153909;-51
2021/12/15 07:05:50;;;;;;;;;;;;;;;20.79;53.32;102684.03;7284651;19;151820;-50
2021/12/15 07:08:17;;;;;;;;;;;;;;;20.82;53.72;102693.88;7284163;19;152651;-51
2021/12/15 07:10:46;;;;;;;;;;;;;;;20.83;53.59;102689.97;7291154;19;152091;-56
2021/12/15 07:13:14;;;;;;;;;;;;;;;20.84;53.59;102692.53;7284790;19;152846;-51
2021/12/15 07:15:40;;;;;;;;;;;;;;;20.86;53.62;102693.09;7282558;19;154010;-50
2021/12/15 07:18:09;;;;;;;;;;;;;;;20.87;53.46;102691.13;7285916;19;151927;-49
2021/12/15 07:23:06;;;;;;;;;;;;;;;20.91;53.91;102694.25;7283625;19;153742;-51
2021/12/15 07:25:34;;;;;;;;;;;;;;;20.92;53.96;102701.56;7283515;19;152431;-50
2021/12/15 07:28:01;;;;;;;;;;;;;;;20.98;54.25;102703.31;7282832;19;153166;-52
2021/12/15 07:30:29;;;;;;;;;;;;;;;20.92;52.84;102708.03;7292523;19;154032;-51
2021/12/15 07:32:56;;;;;;;;;;;;;;;20.88;52.37;102704.06;7282106;19;153311;-52
2021/12/15 07:35:23;;;;;;;;;;;;;;;20.89;52.11;102710.53;7282566;19;154524;-53
2021/12/15 07:37:50;;;;;;;;;;;;;;;20.88;51.97;102706.03;7282167;19;152585;-52
2021/12/15 07:40:20;;;;;;;;;;;;;;;20.86;51.40;102714.72;7282976;19;153518;-51
2021/12/15 07:45:22;;;;;;;;;;;;;;;20.81;50.64;102712.69;7282751;19;153012;-51
2021/12/15 07:47:52;;;;;;;;;;;;;;;20.80;50.82;102716.63;7284196;19;152722;-51
2021/12/15 07:50:19;;;;;;;;;;;;;;;20.84;50.97;102716.97;7282090;19;152431;-52
2021/12/15 07:52:48;;;;;;;;;;;;;;;20.68;49.77;102712.28;7293976;19;151537;-51
2021/12/15 07:55:15;;;;;;;;;;;;;;;20.76;49.79;102725.84;7282568;19;154204;-52
2021/12/15 07:57:42;;;;;;;;;;;;;;;20.76;50.08;102728.66;7283659;19;152416;-52
2021/12/15 08:00:10;;;;;;;;;;;;;;;20.80;49.97;102727.03;7282913;19;153201;-52
2021/12/15 08:02:37;;;;;;;;;;;;;;;20.83;49.82;102730.16;7284135;19;151865;-52
2021/12/15 08:05:05;;;;;;;;;;;;;;;20.87;50.25;102727.66;7281949;19;152170;-52
2021/12/15 08:07:32;;;;;;;;;;;;;;;20.92;49.90;102726.84;7281884;19;153709;-51
2021/12/15 08:09:59;;;;;;;;;;;;;;;20.97;49.78;102727.75;7282641;19;154210;-51
2021/12/15 08:12:28;;;;;;;;;;;;;;;21.01;49.82;102728.91;7285923;19;152502;-51
2021/12/15 08:14:55;;;;;;;;;;;;;;;21.05;49.95;102730.06;7292442;19;153446;-52
2021/12/15 08:17:22;;;;;;;;;;;;;;;21.10;49.86;102737.69;7280529;19;151734;-51
2021/12/15 08:19:49;;;;;;;;;;;;;;;21.14;49.46;102727.63;7284292;19;152736;-52
2021/12/15 08:22:16;;;;;;;;;;;;;;;21.25;49.89;102735.03;7282177;19;154210;-51
2021/12/15 08:24:43;;;;;;;;;;;;;;;21.30;49.91;102749.13;7283376;19;152511;-52
2021/12/15 08:27:10;;;;;;;;;;;;;;;21.34;49.36;102743.81;7283157;19;153547;-52
2021/12/15 08:29:37;;;;;;;;;;;;;;;21.37;49.69;102748.88;7281925;19;152851;-53
2021/12/15 08:32:04;;;;;;;;;;;;;;;21.42;49.59;102752.59;7285466;19;152229;-52
2021/12/15 08:34:31;;;;;;;;;;;;;;;21.44;49.57;102747.50;7284353;19;154152;-52
2021/12/15 08:36:59;;;;;;;;;;;;;;;21.51;49.45;102752.91;7289525;19;153548;-51
2021/12/15 08:39:26;;;;;;;;;;;;;;;21.55;49.25;102759.69;7274989;19;153290;-58
2021/12/15 08:41:53;;;;;;;;;;;;;;;21.58;49.11;102757.16;7283514;19;153952;-52
2021/12/15 08:44:20;;;;;;;;;;;;;;;21.61;49.18;102762.28;7282619;19;151893;-52
2021/12/15 08:46:47;;;;;;;;;;;;;;;21.65;48.67;102757.78;7283205;19;152478;-52
2021/12/15 08:49:17;;;;;;;;;;;;;;;21.69;48.79;102769.34;7281538;19;153767;-52
2021/12/15 08:51:44;;;;;;;;;;;;;;;21.70;48.64;102766.28;7282956;19;152285;-52
2021/12/15 08:54:14;;;;;;;;;;;;;;;21.76;48.49;102772.75;7279516;19;153136;-51
2021/12/15 08:56:42;;;;;;;;;;;;;;;21.80;48.35;102775.88;7278128;19;152310;-52
2021/12/15 08:59:10;;;;;;;;;;;;;;;21.82;48.25;102779.25;7287919;19;152047;-52
2021/12/15 09:01:38;;;;;;;;;;;;;;;21.84;48.17;102774.22;7280850;19;154259;-52
2021/12/15 09:04:05;;;;;;;;;;;;;;;21.84;48.09;102772.25;7279594;19;152128;-52
2021/12/15 09:06:33;;;;;;;;;;;;;;;21.88;48.14;102775.38;7281042;19;152928;-52
2021/12/15 09:09:00;;;;;;;;;;;;;;;21.87;47.92;102773.66;7278815;19;152879;-52
2021/12/15 09:11:27;;;;;;;;;;;;;;;21.87;47.93;102770.84;7283610;19;152399;-52
2021/12/15 09:13:57;;;;;;;;;;;;;;;21.85;48.18;102770.28;7259253;19;153443;-52
2021/12/15 09:16:25;;;;;;;;;;;;;;;21.86;48.01;102777.59;7277655;19;152497;-53
2021/12/15 09:18:52;;;;;;;;;;;;;;;21.85;47.89;102785.19;7287408;19;152447;-52
2021/12/15 09:21:21;;;;;;;;;;;;;;;21.85;47.71;102787.19;7280226;19;154350;-51
2021/12/15 09:23:48;;;;;;;;;;;;;;;21.85;48.03;102790.00;7281401;19;151975;-51
2021/12/15 09:26:16;;;;;;;;;;;;;;;21.84;48.10;102788.28;7279385;19;152091;-52
2021/12/15 09:28:43;;;;;;;;;;;;;;;21.82;47.98;102791.38;7280198;19;153964;-52
2021/12/15 09:31:10;;;;;;;;;;;;;;;21.83;47.85;102795.03;7280774;19;151881;-52
2021/12/15 09:33:39;;;;;;;;;;;;;;;21.81;47.91;102800.91;7280867;19;153105;-52
2021/12/15 09:36:06;;;;;;;;;;;;;;;21.81;47.79;102800.06;7279807;19;153902;-52
2021/12/15 09:38:34;;;;;;;;;;;;;;;21.81;47.67;102794.44;7282310;19;151990;-52
2021/12/15 09:41:07;;;;;;;;;;;;;;;21.80;47.40;102798.41;7286680;19;153284;-52
2021/12/15 09:43:36;;;;;;;;;;;;;;;21.79;47.60;102803.19;7280643;19;152281;-52
2021/12/15 09:46:12;;;;;;;;;;;;;;;21.77;47.57;102794.16;7279050;19;153133;-52
2021/12/15 10:06:26;;;;;;;;;;;;;;;21.66;47.94;102814.91;7288017;19;152750;-51
2021/12/15 10:18:59;;;;;;;;;;;;;;;21.55;47.74;102832.81;7286215;19;153615;-51
2021/12/15 10:21:27;;;;;;;;;;;;;;;21.54;47.94;102829.16;7288727;19;152402;-52
2021/12/15 10:23:55;;;;;;;;;;;;;;;21.54;47.87;102834.78;7287637;19;154843;-52
2021/12/15 10:26:23;;;;;;;;;;;;;;;21.52;47.99;102836.19;7293581;19;152063;-52
2021/12/15 10:28:52;;;;;;;;;;;;;;;21.50;48.06;102828.00;7283531;19;154425;-52
2021/12/15 10:31:23;;;;;;;;;;;;;;;21.50;47.82;102828.00;7285572;19;152142;-52
2021/12/15 10:33:55;;;;;;;;;;;;;;;21.50;47.66;102829.97;7286688;19;152086;-52
2021/12/15 10:36:22;;;;;;;;;;;;;;;21.46;48.08;102829.66;7282648;19;154091;-52
2021/12/15 10:38:53;;;;;;;;;;;;;;;21.41;48.10;102824.00;7287062;19;152720;-52
2021/12/15 10:41:22;;;;;;;;;;;;;;;21.41;47.65;102838.06;7285148;19;154252;-52
2021/12/15 10:43:52;;;;;;;;;;;;;;;21.39;48.20;102837.50;7286113;19;152570;-51
2021/12/15 10:46:22;;;;;;;;;;;;;;;21.39;47.91;102836.63;7284416;19;152240;-52
2021/12/15 10:48:52;;;;;;;;;;;;;;;21.36;47.93;102838.00;7293222;19;152747;-52
2021/12/15 10:51:21;;;;;;;;;;;;;;;21.35;47.94;102832.69;7284214;19;152694;-52
2021/12/15 10:53:50;;;;;;;;;;;;;;;21.32;47.94;102827.56;7285618;19;152044;-52
2021/12/15 10:56:19;;;;;;;;;;;;;;;21.29;48.12;102828.97;7286032;19;154145;-52
2021/12/15 10:58:47;;;;;;;;;;;;;;;21.28;48.40;102827.25;7287413;19;152471;-52
2021/12/15 11:01:18;;;;;;;;;;;;;;;21.26;48.01;102827.53;7284785;19;153207;-52
2021/12/15 11:03:45;;;;;;;;;;;;;;;21.21;48.55;102821.84;7281666;19;154430;-51
2021/12/15 11:06:23;;;;;;;;;;;;;;;21.17;48.74;102825.47;7286796;19;152457;-52
2021/12/15 11:09:09;;;;;;;;;;;;;;;21.17;48.60;102817.03;7284450;19;153165;-52
2021/12/15 11:11:54;;;;;;;;;;;;;;;21.17;48.26;102828.28;7292231;19;154447;-51
2021/12/15 11:14:23;;;;;;;;;;;;;;;21.12;48.71;102828.22;7282867;19;152671;-52
2021/12/15 11:16:53;;;;;;;;;;;;;;;21.08;48.61;102819.44;7281298;19;153294;-52
2021/12/15 11:19:23;;;;;;;;;;;;;;;21.06;48.96;102818.88;7287554;19;152424;-52
2021/12/15 11:21:50;;;;;;;;;;;;;;;21.07;48.75;102829.00;7287093;19;152948;-52
2021/12/15 11:24:22;;;;;;;;;;;;;;;21.03;48.47;102822.19;7284469;19;153337;-51
2021/12/15 11:27:08;;;;;;;;;;;;;;;20.99;49.10;102820.19;7285592;19;152470;-52
2021/12/15 11:29:38;;;;;;;;;;;;;;;21.01;48.67;102817.97;7286206;19;152602;-52
2021/12/15 11:32:05;;;;;;;;;;;;;;;20.93;48.88;102824.94;7294477;19;153295;-51
2021/12/15 11:34:35;;;;;;;;;;;;;;;20.95;48.74;102819.03;7283590;19;152981;-52
2021/12/15 11:37:04;;;;;;;;;;;;;;;20.92;48.85;102813.94;7282078;19;153979;-52
2021/12/15 11:39:32;;;;;;;;;;;;;;;20.92;49.25;102814.81;7287586;19;151684;-52
2021/12/15 11:42:02;;;;;;;;;;;;;;;20.89;48.93;102808.88;7285050;19;153456;-52
2021/12/15 11:44:30;;;;;;;;;;;;;;;20.83;49.41;102808.81;7283917;19;154123;-52
2021/12/15 11:47:01;;;;;;;;;;;;;;;20.82;49.25;102809.94;7283972;19;152553;-52
2021/12/15 11:49:30;;;;;;;;;;;;;;;20.78;49.47;102811.56;7286110;19;152508;-52
2021/12/15 11:52:00;;;;;;;;;;;;;;;20.80;49.05;102811.31;7284023;19;153552;-51
2021/12/15 11:54:30;;;;;;;;;;;;;;;20.77;49.16;102809.88;7292359;19;151780;-51
2021/12/15 11:57:00;;;;;;;;;;;;;;;20.76;49.57;102815.75;7281569;19;153405;-52
2021/12/15 11:59:27;;;;;;;;;;;;;;;20.72;49.30;102814.56;7285644;19;152330;-51
2021/12/15 12:02:01;;;;;;;;;;;;;;;20.69;49.59;102810.34;7282420;19;153373;-52
2021/12/15 12:04:31;;;;;;;;;;;;;;;20.69;49.70;102815.97;7279465;19;153855;-51
2021/12/15 12:07:01;;;;;;;;;;;;;;;20.67;49.34;102821.00;7285027;19;151958;-51
2021/12/15 12:09:28;;;;;;;;;;;;;;;20.65;49.54;102826.03;7285637;19;152690;-52
2021/12/15 12:11:59;;;;;;;;;;;;;;;20.64;49.58;102815.06;7283139;19;154347;-51
2021/12/15 12:14:38;;;;;;;;;;;;;;;20.62;49.52;102823.78;7284336;19;151861;-52
2021/12/15 12:17:12;;;;;;;;;;;;;;;20.61;49.36;102824.88;7285806;19;153083;-52
2021/12/15 12:19:40;;;;;;;;;;;;;;;20.58;49.69;102813.31;7280080;19;152356;-52
2021/12/15 12:22:08;;;;;;;;;;;;;;;20.58;49.33;102813.31;7284605;19;152627;-52
2021/12/15 12:24:37;;;;;;;;;;;;;;;20.57;49.31;102808.81;7283540;19;153203;-52
2021/12/15 12:27:04;;;;;;;;;;;;;;;20.53;49.33;102813.25;7284406;19;151839;-51
2021/12/15 12:29:32;;;;;;;;;;;;;;;20.53;49.60;102816.06;7282101;19;153096;-51
2021/12/15 12:31:59;;;;;;;;;;;;;;;20.51;49.44;102818.28;7282923;19;152378;-51
2021/12/15 12:34:26;;;;;;;;;;;;;;;20.50;49.62;102816.56;7282234;19;151971;-52
2021/12/15 12:36:54;;;;;;;;;;;;;;;20.47;49.67;102805.88;7283158;19;153107;-50
2021/12/15 12:39:28;;;;;;;;;;;;;;;20.47;49.71;102817.97;7290312;19;152545;-51
2021/12/15 12:41:55;;;;;;;;;;;;;;;20.44;49.76;102815.69;7282821;19;152921;-52
2021/12/15 12:44:23;;;;;;;;;;;;;;;20.43;49.87;102819.59;7283754;19;153314;-52
2021/12/15 12:46:56;;;;;;;;;;;;;;;20.42;49.53;102820.69;7284689;19;152045;-52
2021/12/15 12:59:41;;;;;;;;;;;;;;;20.53;49.59;102822.53;7280166;19;152471;-51
2021/12/15 13:02:11;;;;;;;;;;;;;;;20.56;49.37;102822.00;7291019;19;152452;-52
2021/12/15 13:04:40;;;;;;;;;;;;;;;20.60;49.43;102817.56;7276079;19;153563;-52
2021/12/15 13:07:07;;;;;;;;;;;;;;;20.65;49.48;102819.56;7283396;19;151696;-52
2021/12/15 13:09:37;;;;;;;;;;;;;;;20.70;49.22;102811.19;7282302;19;153304;-51
2021/12/15 13:12:08;;;;;;;;;;;;;;;20.73;49.49;102817.13;7280536;19;153723;-51
2021/12/15 13:14:37;;;;;;;;;;;;;;;20.78;49.03;102805.94;7283090;19;152091;-51
2021/12/15 13:17:13;;;;;;;;;;;;;;;20.80;49.23;102816.94;7281383;19;152464;-52
2021/12/15 13:19:42;;;;;;;;;;;;;;;20.84;49.26;102815.28;7276443;19;153397;-52
2021/12/15 13:29:47;;;;;;;;;;;;;;;20.94;48.50;102815.38;7283313;19;152142;-52
2021/12/15 13:32:15;;;;;;;;;;;;;;;20.96;48.57;102815.13;7279317;19;153459;-52
2021/12/15 13:34:46;;;;;;;;;;;;;;;20.96;48.44;102813.16;7284251;19;151959;-52
2021/12/15 13:37:16;;;;;;;;;;;;;;;20.98;48.66;102807.28;7283429;19;152740;-51
2021/12/15 13:39:46;;;;;;;;;;;;;;;21.00;48.56;102810.66;7286598;19;154578;-52
2021/12/15 13:42:15;;;;;;;;;;;;;;;21.02;48.40;102814.06;7284877;19;153061;-51
2021/12/15 13:44:44;;;;;;;;;;;;;;;21.02;48.56;102812.09;7295417;19;153036;-51
2021/12/15 13:47:13;;;;;;;;;;;;;;;21.03;48.36;102812.94;7276131;19;152650;-52
2021/12/15 13:49:43;;;;;;;;;;;;;;;21.03;48.59;102810.97;7288386;19;152208;-51
2021/12/15 13:52:14;;;;;;;;;;;;;;;21.03;48.14;102813.78;7280400;19;153819;-52
2021/12/15 13:54:42;;;;;;;;;;;;;;;20.99;48.06;102817.38;7285167;19;152641;-52
2021/12/15 13:57:09;;;;;;;;;;;;;;;20.99;48.01;102823.84;7279711;19;152076;-51
2021/12/15 13:59:37;;;;;;;;;;;;;;;20.98;48.40;102824.16;7283237;19;153154;-51
2021/12/15 14:02:07;;;;;;;;;;;;;;;20.97;48.02;102828.06;7289557;19;152539;-52
2021/12/15 14:04:37;;;;;;;;;;;;;;;20.99;47.99;102831.44;7283403;19;152621;-51
2021/12/15 14:07:07;;;;;;;;;;;;;;;20.97;48.05;102836.50;7295401;19;153362;-51
2021/12/15 14:09:34;;;;;;;;;;;;;;;20.96;47.77;102830.00;7283158;19;152028;-51
2021/12/15 14:12:01;;;;;;;;;;;;;;;20.99;48.13;102831.44;7288709;19;153287;-51
2021/12/15 14:14:28;;;;;;;;;;;;;;;20.97;47.77;102836.50;7287089;19;152122;-50
2021/12/15 14:16:56;;;;;;;;;;;;;;;20.97;47.66;102833.69;7285434;19;153578;-51
2021/12/15 14:19:28;;;;;;;;;;;;;;;20.96;47.75;102843.22;7272905;19;154431;-51
2021/12/15 14:21:57;;;;;;;;;;;;;;;20.96;47.75;102837.59;7285430;19;152583;-50
2021/12/15 14:24:24;;;;;;;;;;;;;;;20.95;48.00;102839.56;7287104;19;153229;-50